Terminal Aerodrome Forecast
Issued by NWS

Home | Current Version | Previous Version | Text Only | Print | Product List | Glossary On
Versions: 1 2 3 4 5 6 7 8 9 10 11 12 13 14 15 16 17 18
000
FTUS46 KSEW 250800 AAA
TAFBFI
TAF AMD
KBFI 250800Z 2508/2606 00000KT P6SM SCT009 BKN016 BKN070
      TEMPO 2510/2514 -SHRA OVC009
     FM260000 VRB03KT P6SM BKN050=

USA.gov is the U.S. government's official web portal to all federal, state and local government web resources and services.